Time;durP1;ratioP1;P1;durP2;ratioP2;P2;SDS_P1;SDS_P2;PMS_P1;PMS_P2;Temp;Humidity;BMP_temperature;BMP_pressure;BME280_temperature;BME280_humidity;BME280_pressure;Samples;Min_cycle;Max_cycle;Signal;HPM_P1;HPM_P2
2023/09/02 00:01:40;;;;;;;11.77;5.83;;;15.00;99.90;;;;;;5155274;27;20089;-77
2023/09/02 00:04:07;;;;;;;9.03;5.50;;;14.90;99.90;;;;;;5136451;27;20153;-78
2023/09/02 00:06:33;;;;;;;11.60;5.87;;;14.90;99.90;;;;;;5154694;27;20096;-77
2023/09/02 00:08:58;;;;;;;10.00;5.77;;;14.90;99.90;;;;;;5154746;27;20046;-78
2023/09/02 00:11:24;;;;;;;9.57;5.50;;;14.90;99.90;;;;;;5155021;27;20390;-78
2023/09/02 00:13:50;;;;;;;8.20;5.83;;;14.80;99.90;;;;;;5154923;27;20062;-78
2023/09/02 00:16:17;;;;;;;9.27;6.07;;;14.80;99.90;;;;;;5154560;27;20137;-78
2023/09/02 00:18:43;;;;;;;10.07;6.17;;;14.80;99.90;;;;;;5136308;27;20051;-78
2023/09/02 00:21:11;;;;;;;10.13;5.67;;;14.80;99.90;;;;;;5154965;27;20051;-77
2023/09/02 00:23:39;;;;;;;10.00;5.00;;;14.80;99.90;;;;;;5119438;27;20045;-77
2023/09/02 00:26:05;;;;;;;9.33;5.83;;;14.80;99.90;;;;;;5119544;27;20045;-77
2023/09/02 00:28:31;;;;;;;8.03;5.33;;;14.80;99.90;;;;;;5135586;27;20487;-77
2023/09/02 00:30:56;;;;;;;11.63;5.50;;;14.80;99.90;;;;;;5119604;27;20588;-78
2023/09/02 00:33:22;;;;;;;7.83;6.03;;;14.80;99.90;;;;;;5135885;27;20046;-78
2023/09/02 00:35:49;;;;;;;8.00;5.03;;;14.80;99.90;;;;;;5154640;27;20466;-78
2023/09/02 00:38:17;;;;;;;8.50;4.83;;;14.80;99.90;;;;;;5136418;27;20084;-77
2023/09/02 00:40:55;;;;;;;9.47;5.57;;;14.80;99.90;;;;;;5137015;27;20131;-76
2023/09/02 00:43:20;;;;;;;8.60;4.93;;;14.80;99.90;;;;;;5135977;27;20043;-77
2023/09/02 00:45:46;;;;;;;7.50;5.20;;;14.80;99.90;;;;;;5154566;27;20402;-77
2023/09/02 00:48:12;;;;;;;7.17;5.10;;;14.80;99.90;;;;;;5154222;27;20038;-77
2023/09/02 00:50:38;;;;;;;10.03;5.37;;;14.80;99.90;;;;;;5154562;27;20523;-77
2023/09/02 00:53:03;;;;;;;7.77;5.50;;;14.70;99.90;;;;;;5154124;27;20078;-77
2023/09/02 00:55:30;;;;;;;8.83;6.13;;;14.70;99.90;;;;;;5154442;27;20096;-77
2023/09/02 00:57:56;;;;;;;8.43;5.70;;;14.70;99.90;;;;;;5154456;27;20050;-77
2023/09/02 01:00:22;;;;;;;9.37;5.33;;;14.70;99.90;;;;;;5135876;27;20051;-77
2023/09/02 01:02:49;;;;;;;11.00;5.57;;;14.70;99.90;;;;;;5135818;27;20103;-77
2023/09/02 01:05:15;;;;;;;7.57;5.40;;;14.70;99.90;;;;;;5154128;27;20093;-77
2023/09/02 01:07:43;;;;;;;11.07;5.67;;;14.70;99.90;;;;;;5119294;27;20042;-77
2023/09/02 01:10:09;;;;;;;8.10;5.70;;;14.60;99.90;;;;;;5154083;27;20080;-77
2023/09/02 01:12:35;;;;;;;7.97;6.00;;;14.60;99.90;;;;;;5154250;27;20445;-77
2023/09/02 01:15:00;;;;;;;9.77;5.17;;;14.60;99.90;;;;;;5119059;27;20535;-77
2023/09/02 01:17:26;;;;;;;11.03;6.57;;;14.60;99.90;;;;;;5136783;27;20465;-77
2023/09/02 01:19:56;;;;;;;10.20;6.30;;;14.60;99.90;;;;;;5158230;27;20080;-77
2023/09/02 01:22:31;;;;;;;10.27;5.47;;;14.60;99.90;;;;;;5139398;27;20050;-77
2023/09/02 01:25:07;;;;;;;;;;;14.70;99.90;;;;;;5140307;27;20827;-77
2023/09/02 01:28:02;;;;;;;7.82;5.65;;;14.70;99.90;;;;;;5158558;27;19919;-77
2023/09/02 01:30:33;;;;;;;10.07;5.45;;;14.60;99.90;;;;;;5137205;27;20062;-77
2023/09/02 01:33:04;;;;;;;10.03;6.43;;;14.60;99.90;;;;;;5139700;27;20094;-77
2023/09/02 01:35:35;;;;;;;7.33;5.50;;;14.60;99.90;;;;;;5157810;27;20107;-77
2023/09/02 01:38:04;;;;;;;8.97;5.63;;;14.60;99.90;;;;;;5160043;27;20046;-77
2023/09/02 01:40:32;;;;;;;9.80;5.90;;;14.60;99.90;;;;;;5139491;27;20043;-77
2023/09/02 01:42:59;;;;;;;9.77;5.80;;;14.60;99.90;;;;;;5122165;27;20497;-77
2023/09/02 01:45:33;;;;;;;9.50;6.37;;;14.60;99.90;;;;;;5157553;27;20505;-77
2023/09/02 01:48:00;;;;;;;7.78;5.40;;;14.60;99.90;;;;;;5139622;27;20047;-77
2023/09/02 01:50:32;;;;;;;10.30;5.40;;;14.50;99.90;;;;;;5138895;27;20062;-77
2023/09/02 01:52:59;;;;;;;9.40;5.57;;;14.50;99.90;;;;;;5157649;27;20049;-77
2023/09/02 01:55:25;;;;;;;10.33;6.10;;;14.50;99.90;;;;;;5139097;27;20284;-78
2023/09/02 01:57:51;;;;;;;8.03;5.40;;;14.50;99.90;;;;;;5157513;27;20072;-78
2023/09/02 02:00:16;;;;;;;7.77;5.73;;;14.50;99.90;;;;;;5121600;27;20125;-78
2023/09/02 02:02:42;;;;;;;7.60;5.07;;;14.50;99.90;;;;;;5157817;27;20089;-77
2023/09/02 02:05:13;;;;;;;8.33;5.50;;;14.50;99.90;;;;;;5139046;27;20386;-77
2023/09/02 02:07:44;;;;;;;10.90;6.17;;;14.40;99.90;;;;;;5139292;27;20047;-78
2023/09/02 02:10:15;;;;;;;9.33;5.80;;;14.40;99.90;;;;;;5157378;27;20280;-77
2023/09/02 02:12:42;;;;;;;8.03;6.13;;;14.40;99.90;;;;;;5121685;27;20118;-77
2023/09/02 02:15:10;;;;;;;9.70;6.40;;;14.30;99.90;;;;;;5138963;27;20046;-77
2023/09/02 02:17:39;;;;;;;8.70;5.97;;;14.30;99.90;;;;;;5138303;27;20049;-78
2023/09/02 02:20:09;;;;;;;9.20;6.23;;;14.30;99.90;;;;;;5104901;27;20367;-77
2023/09/02 02:22:35;;;;;;;8.53;6.40;;;14.20;99.90;;;;;;5138520;27;20058;-77
2023/09/02 02:25:01;;;;;;;9.50;6.00;;;14.20;99.90;;;;;;5121648;27;20133;-77
2023/09/02 02:27:27;;;;;;;9.67;6.23;;;14.20;99.90;;;;;;5121417;27;20772;-77
2023/09/02 02:29:53;;;;;;;10.37;6.17;;;14.20;99.90;;;;;;5156794;27;20287;-77
2023/09/02 02:32:19;;;;;;;9.50;6.57;;;14.20;99.90;;;;;;5156555;27;20483;-77
2023/09/02 02:34:45;;;;;;;7.87;5.33;;;14.20;99.90;;;;;;5138425;27;20443;-77
2023/09/02 02:37:10;;;;;;;10.53;6.73;;;14.20;99.90;;;;;;5156775;27;20313;-77
2023/09/02 02:39:36;;;;;;;11.00;6.60;;;14.30;99.90;;;;;;5156526;27;20050;-77
2023/09/02 02:42:02;;;;;;;9.90;6.60;;;14.30;99.90;;;;;;5156718;27;20081;-77
2023/09/02 02:44:28;;;;;;;9.53;6.97;;;14.30;99.90;;;;;;5103901;27;20088;-78
2023/09/02 02:46:53;;;;;;;8.97;6.57;;;14.20;99.90;;;;;;5156758;27;20539;-77
2023/09/02 02:49:19;;;;;;;10.13;6.30;;;14.20;99.90;;;;;;5137863;27;20051;-78
2023/09/02 02:51:45;;;;;;;10.77;7.20;;;14.20;99.90;;;;;;5138015;27;20053;-77
2023/09/02 02:54:11;;;;;;;9.33;5.87;;;14.20;99.90;;;;;;5156579;27;20142;-77
2023/09/02 02:56:36;;;;;;;9.73;6.30;;;14.20;99.90;;;;;;5137855;27;20065;-78
2023/09/02 02:59:02;;;;;;;8.27;5.67;;;14.20;99.90;;;;;;5156349;27;20482;-77
2023/09/02 03:01:30;;;;;;;9.00;6.07;;;14.20;99.90;;;;;;5137788;27;20046;-78
2023/09/02 03:03:55;;;;;;;10.07;7.07;;;14.20;99.90;;;;;;5138289;27;20059;-77
2023/09/02 03:06:21;;;;;;;10.90;7.27;;;14.10;99.90;;;;;;5120363;27;20049;-77
2023/09/02 03:08:47;;;;;;;9.67;7.57;;;14.10;99.90;;;;;;5156315;27;20111;-77
2023/09/02 03:11:12;;;;;;;9.20;6.93;;;14.10;99.90;;;;;;5120704;27;20043;-77
2023/09/02 03:13:38;;;;;;;9.13;6.63;;;14.10;99.90;;;;;;5120119;27;20088;-78
2023/09/02 03:16:05;;;;;;;11.10;7.43;;;14.10;99.90;;;;;;5137590;27;20064;-77
2023/09/02 03:18:30;;;;;;;8.67;6.63;;;14.10;99.90;;;;;;5137397;27;20038;-78
2023/09/02 03:21:08;;;;;;;10.40;7.60;;;14.10;99.90;;;;;;5120737;27;20110;-77
2023/09/02 03:23:34;;;;;;;13.20;8.10;;;14.20;99.90;;;;;;5155765;27;20071;-77
2023/09/02 03:26:11;;;;;;;11.00;7.97;;;14.10;99.90;;;;;;5137660;27;20492;-77
2023/09/02 03:28:36;;;;;;;10.27;8.47;;;14.10;99.90;;;;;;5136873;27;20057;-78
2023/09/02 03:31:10;;;;;;;9.03;7.33;;;14.10;99.90;;;;;;5137277;27;20359;-77
2023/09/02 03:33:36;;;;;;;11.87;7.60;;;14.10;99.90;;;;;;5136950;27;20046;-78
2023/09/02 03:36:03;;;;;;;10.33;8.00;;;14.10;99.90;;;;;;5120450;27;20332;-78
2023/09/02 03:38:29;;;;;;;9.63;7.00;;;14.20;99.90;;;;;;5156880;27;20352;-78
2023/09/02 03:40:55;;;;;;;11.63;7.90;;;14.10;99.90;;;;;;5136580;27;20751;-78
2023/09/02 03:43:21;;;;;;;10.53;8.20;;;14.20;99.90;;;;;;5137258;27;20435;-77
2023/09/02 03:45:49;;;;;;;10.83;8.03;;;14.10;99.90;;;;;;5136828;27;20039;-78
2023/09/02 03:48:19;;;;;;;11.13;8.23;;;14.20;99.90;;;;;;5155407;27;20474;-78
2023/09/02 03:51:05;;;;;;;8.97;7.60;;;14.20;99.90;;;;;;5154810;27;20287;-78
2023/09/02 03:53:32;;;;;;;10.63;7.97;;;14.20;99.90;;;;;;5154736;27;20770;-78
2023/09/02 03:55:58;;;;;;;10.90;7.60;;;14.30;99.90;;;;;;5155218;27;20279;-78
2023/09/02 03:58:25;;;;;;;10.17;7.83;;;14.30;99.90;;;;;;5136735;27;20272;-77
2023/09/02 04:00:51;;;;;;;13.10;8.57;;;14.30;99.90;;;;;;5136615;27;20290;-78
2023/09/02 04:03:19;;;;;;;9.93;7.90;;;14.30;99.90;;;;;;5137101;27;20280;-78
2023/09/02 04:05:46;;;;;;;9.63;7.80;;;14.30;99.90;;;;;;5136518;27;20091;-78
2023/09/02 04:08:12;;;;;;;9.80;7.80;;;14.30;99.90;;;;;;5119766;27;20280;-78
2023/09/02 04:10:38;;;;;;;12.97;7.80;;;14.30;99.90;;;;;;5154750;27;20078;-78
2023/09/02 04:13:04;;;;;;;11.57;8.33;;;14.30;99.90;;;;;;5154931;27;20124;-78
2023/09/02 04:15:29;;;;;;;10.90;8.80;;;14.20;99.90;;;;;;5136639;27;20457;-78
2023/09/02 04:17:55;;;;;;;10.13;7.87;;;14.20;99.90;;;;;;5155599;27;20051;-77
2023/09/02 04:20:21;;;;;;;10.37;7.93;;;14.10;99.90;;;;;;5136237;27;20039;-78
2023/09/02 04:22:46;;;;;;;11.67;8.73;;;14.10;99.90;;;;;;5154451;27;20039;-78
2023/09/02 04:25:14;;;;;;;11.00;8.73;;;14.00;99.90;;;;;;5154823;27;20046;-78
2023/09/02 04:27:40;;;;;;;11.07;9.37;;;14.00;99.90;;;;;;5135996;27;20050;-78
2023/09/02 04:30:06;;;;;;;11.37;9.10;;;13.90;99.90;;;;;;5154897;27;20058;-77
2023/09/02 04:32:32;;;;;;;12.47;9.40;;;13.90;99.90;;;;;;5154370;27;20497;-78
2023/09/02 04:34:58;;;;;;;10.13;9.13;;;13.90;99.90;;;;;;5154706;27;20315;-78
2023/09/02 04:37:24;;;;;;;11.20;9.33;;;13.90;99.90;;;;;;5154715;27;20177;-77
2023/09/02 04:39:51;;;;;;;11.00;9.10;;;13.70;99.90;;;;;;5154455;27;20448;-78
2023/09/02 04:42:17;;;;;;;11.33;9.20;;;13.70;99.90;;;;;;5119474;27;20284;-78
2023/09/02 04:44:42;;;;;;;12.27;10.00;;;13.70;99.90;;;;;;5136137;27;20340;-78
2023/09/02 04:47:10;;;;;;;10.83;8.70;;;13.60;99.90;;;;;;5136402;27;20054;-78
2023/09/02 04:49:35;;;;;;;10.63;8.50;;;13.60;99.90;;;;;;5136122;27;20046;-78
2023/09/02 04:52:03;;;;;;;11.53;8.73;;;13.60;99.90;;;;;;5104664;27;20887;-78
2023/09/02 04:54:30;;;;;;;12.30;9.40;;;13.60;99.90;;;;;;5140473;27;20054;-77
2023/09/02 04:56:56;;;;;;;10.90;8.93;;;13.60;99.90;;;;;;5158288;27;20732;-78
2023/09/02 04:59:21;;;;;;;11.47;9.33;;;13.60;99.90;;;;;;5158753;27;20356;-78
2023/09/02 05:01:47;;;;;;;11.57;8.20;;;13.60;99.90;;;;;;5158432;27;20109;-78
2023/09/02 05:04:13;;;;;;;11.73;8.97;;;13.60;99.90;;;;;;5158830;27;20054;-78
2023/09/02 05:06:38;;;;;;;12.93;8.97;;;13.60;99.90;;;;;;5158275;27;20100;-76
2023/09/02 05:09:04;;;;;;;14.10;9.07;;;13.60;99.90;;;;;;5158562;27;20043;-78
2023/09/02 05:11:30;;;;;;;11.87;9.37;;;13.50;99.90;;;;;;5158520;27;20130;-78
2023/09/02 05:13:56;;;;;;;14.07;8.87;;;13.50;99.90;;;;;;5139607;27;20394;-76
2023/09/02 05:16:22;;;;;;;10.50;8.63;;;13.60;99.90;;;;;;5158361;27;20427;-76
2023/09/02 05:18:47;;;;;;;14.50;9.50;;;13.60;99.90;;;;;;5139785;27;20047;-76
2023/09/02 05:21:13;;;;;;;11.17;9.03;;;13.60;99.90;;;;;;5158219;27;20343;-76
2023/09/02 05:23:38;;;;;;;11.30;9.30;;;13.60;99.90;;;;;;5139768;27;20047;-76
2023/09/02 05:26:04;;;;;;;11.70;9.50;;;13.60;99.90;;;;;;5158161;27;20046;-78
2023/09/02 05:28:30;;;;;;;12.90;9.83;;;13.60;99.90;;;;;;5139653;27;20054;-79
2023/09/02 05:30:56;;;;;;;11.00;9.03;;;13.70;99.90;;;;;;5157832;27;20860;-77
2023/09/02 05:33:22;;;;;;;11.90;8.97;;;13.70;99.90;;;;;;5157921;27;20367;-78
2023/09/02 05:35:49;;;;;;;12.80;9.93;;;13.70;99.90;;;;;;5157848;27;20047;-79
2023/09/02 05:38:14;;;;;;;10.73;9.00;;;13.60;99.90;;;;;;5140992;27;20055;-77
2023/09/02 05:40:44;;;;;;;12.93;10.23;;;13.60;99.90;;;;;;5139538;27;20778;-80
2023/09/02 05:43:09;;;;;;;12.70;9.37;;;13.60;99.90;;;;;;5157919;27;20130;-77
2023/09/02 05:45:35;;;;;;;12.60;9.67;;;13.60;99.90;;;;;;5157981;27;20359;-76
2023/09/02 05:48:01;;;;;;;10.40;8.73;;;13.70;99.90;;;;;;5122154;27;20057;-78
2023/09/02 05:50:27;;;;;;;13.30;8.80;;;13.70;99.90;;;;;;5157800;27;20053;-79
2023/09/02 05:52:53;;;;;;;11.43;8.87;;;13.70;99.90;;;;;;5121836;27;20304;-78
2023/09/02 05:55:18;;;;;;;12.23;9.37;;;13.80;99.90;;;;;;5157721;27;20095;-78
2023/09/02 05:57:44;;;;;;;14.87;10.27;;;13.80;99.90;;;;;;5139026;27;20042;-79
2023/09/02 06:00:11;;;;;;;12.73;10.03;;;13.90;99.90;;;;;;5139618;27;20045;-79
2023/09/02 06:02:37;;;;;;;16.77;10.03;;;13.90;99.90;;;;;;5138764;27;20047;-79
2023/09/02 06:05:03;;;;;;;14.17;10.27;;;14.10;99.90;;;;;;5138791;27;20287;-79
2023/09/02 06:07:28;;;;;;;13.33;10.17;;;14.20;99.90;;;;;;5138861;27;20065;-79
2023/09/02 06:09:54;;;;;;;13.80;10.60;;;14.30;99.90;;;;;;5138699;27;20054;-78
2023/09/02 06:12:20;;;;;;;11.63;10.17;;;14.50;99.90;;;;;;5138743;27;20091;-78
2023/09/02 06:14:45;;;;;;;13.70;10.70;;;14.60;99.90;;;;;;5156959;27;20057;-79
2023/09/02 06:17:11;;;;;;;14.83;10.53;;;15.00;99.90;;;;;;5157263;27;20054;-78
2023/09/02 06:19:37;;;;;;;14.00;10.07;;;15.80;99.90;;;;;;5138633;27;20057;-78
2023/09/02 06:22:02;;;;;;;13.10;10.80;;;16.80;99.90;;;;;;5156911;27;20039;-79
2023/09/02 06:24:28;;;;;;;11.40;9.20;;;17.70;99.90;;;;;;5121651;27;20490;-79
2023/09/02 06:26:54;;;;;;;18.70;9.40;;;18.60;99.90;;;;;;5121361;27;20049;-79
2023/09/02 06:29:19;;;;;;;13.30;9.53;;;19.40;99.90;;;;;;5104302;27;20054;-79
2023/09/02 06:31:45;;;;;;;10.60;8.60;;;20.00;99.90;;;;;;5138242;27;20047;-79
2023/09/02 06:34:11;;;;;;;15.03;9.77;;;20.70;99.90;;;;;;5138900;27;20117;-79
2023/09/02 06:36:37;;;;;;;13.50;10.60;;;21.30;99.90;;;;;;5104201;27;20039;-79
2023/09/02 06:39:04;;;;;;;11.53;9.57;;;21.80;99.90;;;;;;5138034;27;20045;-79
2023/09/02 06:41:30;;;;;;;11.23;10.07;;;22.10;99.90;;;;;;5121518;27;20046;-79
2023/09/02 06:43:56;;;;;;;14.53;10.43;;;22.60;99.90;;;;;;5156420;27;20046;-79
2023/09/02 06:46:25;;;;;;;14.37;10.10;;;23.10;99.90;;;;;;5156988;27;20050;-78
2023/09/02 06:48:50;;;;;;;15.07;9.67;;;23.40;99.90;;;;;;5156322;27;20054;-78
2023/09/02 06:51:16;;;;;;;14.00;10.50;;;23.90;99.90;;;;;;5121189;27;20043;-79
2023/09/02 06:53:44;;;;;;;14.83;11.00;;;23.90;99.90;;;;;;5156442;27;20045;-80
2023/09/02 06:56:13;;;;;;;12.73;9.90;;;24.40;99.90;;;;;;5156305;27;20043;-80
2023/09/02 06:58:41;;;;;;;15.00;10.93;;;24.30;99.90;;;;;;5138145;27;20085;-78
2023/09/02 07:01:06;;;;;;;14.97;10.97;;;24.40;99.90;;;;;;5137807;27;20046;-76
2023/09/02 07:03:32;;;;;;;13.83;10.80;;;24.50;99.90;;;;;;5155983;27;20041;-75
2023/09/02 07:06:06;;;;;;;13.20;10.27;;;24.80;99.90;;;;;;5137656;27;20053;-75
2023/09/02 07:08:32;;;;;;;14.20;11.40;;;25.10;93.30;;;;;;5137656;27;20125;-76
2023/09/02 07:10:58;;;;;;;12.70;11.23;;;24.90;98.80;;;;;;5137628;27;20126;-74
2023/09/02 07:13:24;;;;;;;16.47;11.40;;;25.20;99.10;;;;;;5120411;27;20039;-74
2023/09/02 07:16:01;;;;;;;15.50;11.70;;;25.50;97.90;;;;;;5136656;27;20046;-77
2023/09/02 07:18:27;;;;;;;12.77;10.67;;;25.70;82.80;;;;;;5120460;27;20046;-74
2023/09/02 07:20:57;;;;;;;13.67;9.60;;;25.80;94.90;;;;;;5137221;27;20042;-71
2023/09/02 07:23:23;;;;;;;16.90;11.43;;;25.90;91.60;;;;;;5120279;27;20050;-74
2023/09/02 07:25:48;;;;;;;12.83;10.47;;;26.20;93.00;;;;;;5154546;27;20094;-74
2023/09/02 07:28:14;;;;;;;11.90;9.77;;;26.70;91.60;;;;;;5118325;27;20540;-75
2023/09/02 07:30:40;;;;;;;13.40;9.70;;;27.00;87.00;;;;;;5136028;27;20119;-72
2023/09/02 07:33:06;;;;;;;15.13;10.30;;;27.50;80.10;;;;;;5119911;27;20039;-74
2023/09/02 07:35:36;;;;;;;12.40;8.80;;;27.80;76.60;;;;;;5136909;27;20081;-74
2023/09/02 07:38:03;;;;;;;12.83;9.10;;;27.90;73.20;;;;;;5155479;27;20046;-74
2023/09/02 07:40:29;;;;;;;11.70;9.20;;;28.00;69.60;;;;;;5155385;27;20043;-75
2023/09/02 07:42:55;;;;;;;12.57;8.73;;;28.10;69.30;;;;;;5155345;27;20071;-75
2023/09/02 07:45:20;;;;;;;11.07;8.65;;;28.20;67.50;;;;;;5137455;27;20050;-74
2023/09/02 07:47:46;;;;;;;10.63;8.35;;;28.20;67.00;;;;;;5155449;27;20052;-75
2023/09/02 07:50:12;;;;;;;12.43;8.90;;;28.00;66.50;;;;;;5136835;27;20485;-75
2023/09/02 07:52:37;;;;;;;13.60;8.77;;;28.10;66.50;;;;;;5136975;27;20133;-74
2023/09/02 07:55:03;;;;;;;11.15;8.82;;;28.00;65.70;;;;;;5154661;27;20137;-74
2023/09/02 07:57:30;;;;;;;11.65;8.57;;;27.30;65.80;;;;;;5136875;27;20042;-75
2023/09/02 07:59:57;;;;;;;11.73;8.18;;;26.10;69.10;;;;;;5154936;27;20122;-75
2023/09/02 08:02:23;;;;;;;10.23;7.13;;;25.10;75.90;;;;;;5155071;27;20115;-73
2023/09/02 08:04:48;;;;;;;11.67;7.67;;;24.40;83.60;;;;;;5119511;27;20043;-75
2023/09/02 08:07:14;;;;;;;8.53;6.47;;;23.70;91.10;;;;;;5136592;27;20042;-74
2023/09/02 08:09:40;;;;;;;10.20;7.07;;;23.40;93.70;;;;;;5136875;27;20130;-74
2023/09/02 08:12:07;;;;;;;11.70;6.60;;;23.30;96.10;;;;;;5154696;27;20402;-74
2023/09/02 08:14:32;;;;;;;9.50;6.37;;;23.20;96.80;;;;;;5136582;27;20053;-73
2023/09/02 08:16:58;;;;;;;11.67;7.30;;;23.00;97.70;;;;;;5154627;27;20046;-75
2023/09/02 08:19:24;;;;;;;9.10;6.70;;;22.80;98.80;;;;;;5154317;27;20069;-73
2023/09/02 08:21:49;;;;;;;9.37;6.83;;;22.60;99.60;;;;;;5119543;27;20054;-72
2023/09/02 08:24:15;;;;;;;10.90;6.53;;;22.50;99.90;;;;;;5154513;27;20528;-73
2023/09/02 08:26:41;;;;;;;9.17;5.70;;;22.40;99.90;;;;;;5154576;27;20042;-72
2023/09/02 08:29:08;;;;;;;11.10;5.83;;;22.30;99.90;;;;;;5134916;27;20435;-73
2023/09/02 08:31:33;;;;;;;10.27;6.87;;;22.20;99.90;;;;;;5135562;27;20058;-74
2023/09/02 08:33:59;;;;;;;10.97;6.37;;;22.00;99.90;;;;;;5135388;27;20043;-74
2023/09/02 08:36:25;;;;;;;8.97;5.87;;;21.80;99.90;;;;;;5135729;27;20043;-73
2023/09/02 08:38:52;;;;;;;10.90;6.37;;;21.70;99.90;;;;;;5136164;27;20046;-73
2023/09/02 08:41:30;;;;;;;10.33;6.60;;;21.60;99.90;;;;;;5154394;27;20043;-73
2023/09/02 08:44:00;;;;;;;10.27;6.30;;;21.50;99.90;;;;;;5136573;27;20058;-74
2023/09/02 08:46:27;;;;;;;9.37;6.30;;;21.40;99.90;;;;;;5136630;27;20062;-74
2023/09/02 08:48:56;;;;;;;9.60;7.23;;;21.40;99.90;;;;;;5136327;27;20112;-72
2023/09/02 08:51:24;;;;;;;9.83;7.50;;;21.30;99.90;;;;;;5135976;27;20118;-72
2023/09/02 08:53:51;;;;;;;11.00;7.60;;;21.20;99.90;;;;;;5133953;27;20070;-72
2023/09/02 08:56:17;;;;;;;10.17;6.87;;;21.30;99.90;;;;;;5098216;28;20498;-72
2023/09/02 08:58:43;;;;;;;11.37;7.30;;;21.10;99.90;;;;;;5134011;28;20086;-72
2023/09/02 09:01:13;;;;;;;9.40;5.80;;;21.10;99.90;;;;;;5133546;28;20073;-73
2023/09/02 09:03:40;;;;;;;9.77;6.17;;;21.10;99.90;;;;;;5115632;28;20108;-75
2023/09/02 09:06:09;;;;;;;11.10;6.90;;;21.10;99.90;;;;;;5114958;28;20080;-73
2023/09/02 09:08:35;;;;;;;9.93;7.67;;;21.20;99.90;;;;;;5098583;28;20083;-71
2023/09/02 09:11:04;;;;;;;11.13;7.07;;;21.20;99.90;;;;;;5133768;28;20070;-71
2023/09/02 09:13:30;;;;;;;10.47;6.77;;;21.10;99.90;;;;;;5098443;28;20043;-71
2023/09/02 09:15:58;;;;;;;10.30;8.10;;;21.00;99.90;;;;;;5144080;27;20042;-72
2023/09/02 09:18:24;;;;;;;9.17;6.63;;;20.90;99.90;;;;;;5149807;27;20039;-71
2023/09/02 09:20:50;;;;;;;12.30;7.70;;;20.90;99.90;;;;;;5152676;27;20065;-71
2023/09/02 09:23:16;;;;;;;10.70;6.37;;;20.80;99.90;;;;;;5152311;27;20494;-74
2023/09/02 09:25:42;;;;;;;13.67;7.30;;;20.90;99.90;;;;;;5135894;27;20085;-74
2023/09/02 09:28:12;;;;;;;10.60;7.20;;;20.80;99.90;;;;;;5153819;27;20080;-74
2023/09/02 09:30:38;;;;;;;10.67;7.67;;;20.80;99.90;;;;;;5118829;27;20050;-73
2023/09/02 09:33:05;;;;;;;10.63;6.77;;;20.90;99.90;;;;;;5154015;27;20051;-74
2023/09/02 09:35:32;;;;;;;11.23;7.50;;;21.00;99.90;;;;;;5135802;27;20493;-73
2023/09/02 09:37:58;;;;;;;13.57;7.50;;;21.10;99.90;;;;;;5135832;27;20054;-73
2023/09/02 09:40:31;;;;;;;11.90;7.47;;;21.10;99.90;;;;;;5157464;27;20486;-74
2023/09/02 09:42:58;;;;;;;11.83;7.33;;;21.10;99.90;;;;;;5139506;27;20053;-72
2023/09/02 09:45:24;;;;;;;13.80;8.17;;;21.20;99.90;;;;;;5139097;27;20050;-74
2023/09/02 09:47:50;;;;;;;10.03;6.43;;;21.10;99.90;;;;;;5139260;27;20478;-72
2023/09/02 09:50:16;;;;;;;13.23;6.63;;;21.20;99.90;;;;;;5138944;27;20054;-74
2023/09/02 09:53:02;;;;;;;10.80;5.63;;;21.20;99.90;;;;;;5122119;27;20049;-81
2023/09/02 09:55:31;;;;;;;11.63;7.03;;;21.20;99.90;;;;;;5139121;27;20537;-74
2023/09/02 09:57:58;;;;;;;10.97;7.43;;;21.10;99.90;;;;;;5138974;27;20439;-73
2023/09/02 10:00:25;;;;;;;11.30;6.40;;;21.00;99.90;;;;;;5121972;27;20394;-72
2023/09/02 10:02:58;;;;;;;11.00;6.80;;;21.00;99.90;;;;;;5138814;27;20046;-75
2023/09/02 10:05:32;;;;;;;11.30;7.07;;;21.00;99.90;;;;;;5154651;27;20052;-72
2023/09/02 10:08:02;;;;;;;11.43;6.68;;;21.00;99.90;;;;;;5138584;27;20035;-71
2023/09/02 10:10:38;;;;;;;11.23;6.77;;;21.00;99.90;;;;;;5136805;27;20079;-74
2023/09/02 10:13:05;;;;;;;12.33;7.13;;;21.00;99.90;;;;;;5119016;27;20042;-76
2023/09/02 10:15:31;;;;;;;11.20;6.60;;;21.00;99.90;;;;;;5155450;27;20046;-76
2023/09/02 10:18:03;;;;;;;12.57;7.30;;;21.00;99.90;;;;;;5121015;27;20057;-73
2023/09/02 10:20:31;;;;;;;10.60;6.50;;;21.00;99.90;;;;;;5156858;27;20121;-74
2023/09/02 10:23:08;;;;;;;9.83;6.43;;;21.00;99.90;;;;;;5138665;27;20074;-75
2023/09/02 10:26:12;;;;;;;10.97;6.70;;;21.10;99.90;;;;;;5156807;27;20062;-75
2023/09/02 10:28:38;;;;;;;9.73;5.93;;;21.20;99.90;;;;;;5093716;27;20042;-75
2023/09/02 10:31:21;;;;;;;10.37;5.93;;;21.20;99.90;;;;;;5156910;27;20050;-74
2023/09/02 10:34:14;;;;;;;9.57;5.87;;;21.30;99.90;;;;;;5138406;27;20046;-74
2023/09/02 10:36:44;;;;;;;8.37;6.00;;;21.40;99.90;;;;;;5138665;27;20505;-74
2023/09/02 10:39:19;;;;;;;9.60;6.43;;;21.50;99.90;;;;;;5121556;27;20055;-75
2023/09/02 10:41:47;;;;;;;7.87;6.23;;;21.50;99.90;;;;;;5156913;27;20057;-76
2023/09/02 10:44:14;;;;;;;10.57;6.10;;;21.50;99.90;;;;;;5138108;27;20055;-80
2023/09/02 10:46:40;;;;;;;10.00;6.17;;;21.40;99.90;;;;;;5138270;27;20156;-75
2023/09/02 10:49:06;;;;;;;10.77;5.50;;;21.30;99.90;;;;;;5138215;27;20087;-74
2023/09/02 10:51:32;;;;;;;8.90;5.63;;;21.30;99.90;;;;;;5156651;27;20053;-75
2023/09/02 10:54:00;;;;;;;10.67;6.27;;;21.40;99.90;;;;;;5156523;27;20047;-75
2023/09/02 10:56:34;;;;;;;11.23;6.70;;;21.40;99.90;;;;;;5156241;27;20046;-75
2023/09/02 10:59:02;;;;;;;10.48;6.10;;;21.40;99.90;;;;;;5121102;27;20049;-75
2023/09/02 11:01:48;;;;;;;10.20;5.50;;;21.30;99.90;;;;;;5156168;27;20142;-75
2023/09/02 11:04:34;;;;;;;12.97;5.17;;;21.20;99.90;;;;;;5121077;27;20046;-75
2023/09/02 11:07:18;;;;;;;9.87;5.57;;;21.10;99.90;;;;;;5137675;27;20512;-74
2023/09/02 11:09:50;;;;;;;10.10;5.70;;;21.20;99.90;;;;;;5137982;27;20050;-72
2023/09/02 11:12:15;;;;;;;9.57;5.60;;;21.20;99.90;;;;;;5156180;27;20078;-74
2023/09/02 11:14:41;;;;;;;7.60;4.83;;;21.20;99.90;;;;;;5155938;27;20125;-74
2023/09/02 11:17:27;;;;;;;10.93;4.57;;;21.30;99.90;;;;;;5156156;27;20424;-72
2023/09/02 11:19:55;;;;;;;9.53;5.20;;;21.30;99.90;;;;;;5120581;27;20129;-74
2023/09/02 11:22:46;;;;;;;10.83;4.40;;;21.40;99.90;;;;;;5137304;27;20034;-73
2023/09/02 11:25:28;;;;;;;7.63;4.10;;;21.40;99.90;;;;;;5120623;27;20057;-75
2023/09/02 11:27:55;;;;;;;9.20;4.07;;;21.40;99.90;;;;;;5137515;27;20095;-77
2023/09/02 11:30:25;;;;;;;8.87;4.83;;;21.30;99.90;;;;;;5136939;27;20058;-76
2023/09/02 11:32:52;;;;;;;9.43;4.00;;;21.20;99.90;;;;;;5137434;27;20081;-73
2023/09/02 11:35:37;;;;;;;8.60;5.23;;;21.20;99.90;;;;;;5155878;27;20065;-75
2023/09/02 11:38:16;;;;;;;7.53;3.90;;;21.20;99.90;;;;;;5155684;27;20043;-74
2023/09/02 11:40:41;;;;;;;9.30;4.93;;;21.30;99.90;;;;;;5120135;27;20051;-73
2023/09/02 11:43:07;;;;;;;8.63;4.70;;;21.40;99.90;;;;;;5137359;27;20038;-74
2023/09/02 11:45:35;;;;;;;7.30;4.53;;;21.40;99.90;;;;;;5136914;27;20043;-75
2023/09/02 11:48:06;;;;;;;7.47;4.23;;;21.30;99.90;;;;;;5137249;27;20043;-74
2023/09/02 11:50:32;;;;;;;7.23;3.87;;;21.20;99.90;;;;;;5136946;27;20038;-77
2023/09/02 11:52:59;;;;;;;8.30;4.00;;;21.20;99.90;;;;;;5120111;27;20074;-77
2023/09/02 11:55:25;;;;;;;6.27;3.47;;;21.20;99.90;;;;;;5155079;27;20039;-76
2023/09/02 11:57:52;;;;;;;8.53;4.43;;;21.30;99.90;;;;;;5137418;27;20387;-74
2023/09/02 12:00:22;;;;;;;6.97;4.33;;;21.40;99.90;;;;;;5119788;27;20137;-75
2023/09/02 12:02:49;;;;;;;7.37;4.17;;;21.50;99.90;;;;;;5155110;27;20062;-77
2023/09/02 12:05:16;;;;;;;7.33;3.67;;;21.60;99.90;;;;;;5155162;27;20051;-75
2023/09/02 12:07:43;;;;;;;7.70;2.90;;;21.70;99.90;;;;;;5136050;27;20486;-76
2023/09/02 12:10:16;;;;;;;6.67;3.00;;;21.60;99.90;;;;;;5136633;27;20099;-75
2023/09/02 12:12:47;;;;;;;5.27;2.87;;;21.60;99.90;;;;;;5154805;27;20034;-78
2023/09/02 12:15:15;;;;;;;6.57;3.27;;;21.60;99.90;;;;;;5136859;27;20078;-76
2023/09/02 12:17:42;;;;;;;8.00;3.27;;;21.60;99.90;;;;;;5119283;27;20435;-76
2023/09/02 12:20:11;;;;;;;7.20;3.23;;;21.50;99.90;;;;;;5154899;27;20042;-75
2023/09/02 12:22:37;;;;;;;6.97;3.13;;;21.50;99.90;;;;;;5154517;27;20046;-74
2023/09/02 12:25:29;;;;;;;8.73;3.67;;;21.50;99.90;;;;;;5136582;27;20039;-76
2023/09/02 12:28:09;;;;;;;7.10;3.17;;;21.50;99.90;;;;;;5115548;27;20069;-73
2023/09/02 12:30:36;;;;;;;6.20;3.40;;;21.40;99.90;;;;;;5154913;27;20046;-76
2023/09/02 12:33:03;;;;;;;8.87;3.23;;;21.40;99.90;;;;;;5154690;27;20042;-76
2023/09/02 12:35:29;;;;;;;6.37;2.90;;;21.40;99.90;;;;;;5154159;27;20380;-77
2023/09/02 12:38:05;;;;;;;7.03;2.73;;;21.30;99.90;;;;;;5136392;27;20042;-73
2023/09/02 12:40:32;;;;;;;5.67;2.83;;;21.30;99.90;;;;;;5119086;27;20085;-75
2023/09/02 12:42:59;;;;;;;5.80;2.83;;;21.40;99.90;;;;;;5154614;27;20050;-67
2023/09/02 12:45:31;;;;;;;6.30;2.30;;;21.40;99.90;;;;;;5136392;27;20043;-69